Sand Point Airport (SDP/PASD)




Flight Aircraft Arriving
GRZ5375 SF34
PACD - Cold Bay Airport
United StatesAlaska Cold Bay, Alaska
Flight Aircraft Departing
GRZ5374 SF34
PACD - Cold Bay Airport
United StatesAlaska Cold Bay, Alaska
Airport Information
Location: Sand Point, US
Coordinates: 55.3137 / -160.521
Elevation:
Time Offset:
Local Time:
UTC Time:
Jet A Price: $0.91/lbs

Current Weather
METAR: PASD 261456Z AUTO 31007KT 10SM BKN028 02/M01 A2948 RMK AO2 SLP985 6//// T00171011 53015 FZRANO PNO $
TAF: PASD 261522Z 2615/2712 30007KT P6SM VCSH BKN035 TEMPO 2615/2618 5SM -SHSN BKN025 FM262100 26009KT 5SM -SHSN BKN025 FM270200 25011KT P6SM BKN045 AMD LTD TO CLD VIS AND WIND

Recent Arrivals
Date Flight Type Depart
Recent Departures
Date Flight Type Arrive